Time;durP1;ratioP1;P1;durP2;ratioP2;P2;SDS_P1;SDS_P2;PMS_P1;PMS_P2;Temp;Humidity;BMP_temperature;BMP_pressure;BME280_temperature;BME280_humidity;BME280_pressure;Samples;Min_cycle;Max_cycle;Signal;HPM_P1;HPM_P2
2022/03/06 08:08:58;;;;;;;14.00;9.00;;;3.70;45.00;;;5.42;38.61;99110.97;4827547;29;126572;-75
2022/03/06 08:15:08;;;;;;;11.27;7.13;;;4.80;45.90;;;5.51;38.27;99115.66;4828269;29;116821;-75
2022/03/06 08:21:19;;;;;;;11.40;8.03;;;3.50;44.70;;;5.67;38.64;99124.72;4827974;29;125044;-74
2022/03/06 08:27:28;;;;;;;14.47;9.30;;;3.80;44.90;;;5.70;38.48;99121.44;4827711;29;116227;-76
2022/03/06 09:58:10;;;;;;;13.03;7.33;;;7.10;45.00;;;7.05;36.55;99088.81;4848586;29;124755;-75
2022/03/06 10:04:34;;;;;;;12.40;7.17;;;5.80;43.50;;;7.18;36.24;99086.56;4830189;29;115116;-75
2022/03/06 10:10:44;;;;;;;12.50;8.20;;;4.60;42.20;;;7.27;35.56;99084.84;4829450;29;124802;-75
2022/03/06 10:17:11;;;;;;;15.30;9.07;;;6.60;43.30;;;7.35;35.80;99080.69;4830350;29;115012;-74
2022/03/06 10:23:29;;;;;;;12.20;7.50;;;6.70;43.00;;;7.48;34.98;99075.38;4829513;29;124796;-75
2022/03/06 10:29:37;;;;;;;15.60;9.03;;;6.80;42.40;;;7.59;35.08;99080.81;4829757;29;115986;-76
2022/03/06 10:49:34;;;;;;;14.20;7.90;;;5.30;39.80;;;8.04;34.25;99076.88;4866754;28;124706;-76
2022/03/06 10:55:43;;;;;;;14.37;8.03;;;6.60;40.50;;;8.35;33.68;99076.56;4866395;28;114955;-77
2022/03/06 11:01:52;;;;;;;14.43;8.20;;;6.60;40.10;;;8.53;33.29;99075.03;4866154;28;124763;-75
2022/03/06 11:11:51;;;;;;;11.60;7.63;;;7.90;39.80;;;8.56;32.16;99078.03;4866139;28;124976;-75
2022/03/06 11:18:02;;;;;;;11.30;7.53;;;6.30;36.80;;;8.40;32.07;99071.84;4866322;28;115290;-76
2022/03/06 11:24:21;;;;;;;8.97;6.40;;;5.60;36.60;;;8.57;31.76;99070.56;4865856;28;125044;-75
2022/03/06 11:30:30;;;;;;;11.03;7.63;;;5.90;36.90;;;8.68;31.78;99068.53;4865608;28;116306;-75
2022/03/06 12:31:45;;;;;;;10.10;7.27;;;10.40;33.00;;;10.85;27.70;99016.72;5843888;23;99302;-77
2022/03/06 12:38:01;;;;;;;9.03;6.83;;;10.00;32.00;;;10.68;27.63;99024.81;4827878;29;125094;-74
2022/03/06 12:44:25;;;;;;;10.70;7.40;;;9.50;32.90;;;10.66;27.33;99011.31;4827778;29;116372;-74
2022/03/06 12:50:41;;;;;;;10.23;6.20;;;9.40;32.70;;;10.76;28.11;98999.22;4827496;29;125123;-82
2022/03/06 12:56:59;;;;;;;9.60;6.90;;;8.80;32.40;;;11.08;27.53;98986.38;4827720;29;115301;-75
2022/03/06 13:03:12;;;;;;;10.00;7.20;;;9.20;32.50;;;11.38;26.47;98990.38;4826468;29;125265;-76
2022/03/06 13:09:27;;;;;;;7.83;5.93;;;10.50;31.00;;;11.23;26.96;98980.47;4827463;29;115212;-75
2022/03/06 13:15:38;;;;;;;10.17;6.63;;;10.60;30.90;;;11.13;26.36;98983.50;4827094;29;125120;-76
2022/03/06 13:21:48;;;;;;;8.50;6.10;;;11.10;31.30;;;11.05;27.02;98974.00;4829486;29;115330;-76
2022/03/06 13:27:57;;;;;;;8.83;6.13;;;8.20;30.10;;;11.08;26.66;98975.31;4830263;29;125086;-76
2022/03/06 13:58:42;;;;;;;9.87;6.70;;;9.80;31.40;;;10.19;26.49;98977.41;5897938;23;98851;-83
2022/03/06 14:04:51;;;;;;;9.90;5.40;;;7.70;30.00;;;10.26;26.94;98974.22;4810903;29;125224;-75
2022/03/06 14:11:02;;;;;;;9.80;6.70;;;9.80;31.70;;;10.39;26.95;98979.78;4811576;29;115198;-77
2022/03/06 14:17:17;;;;;;;11.93;7.87;;;7.90;30.60;;;10.58;26.71;98974.16;4811237;29;125118;-75
2022/03/06 14:23:27;;;;;;;9.33;6.93;;;7.60;29.60;;;10.60;26.94;98974.66;4816617;29;115346;-76
2022/03/06 14:29:35;;;;;;;6.63;4.60;;;12.00;32.80;;;10.96;27.01;98981.38;4828888;29;125110;-76
2022/03/06 14:50:16;;;;;;;6.80;5.00;;;10.80;31.00;;;11.56;26.55;98969.19;5164655;23;98154;-91
2022/03/06 14:56:25;;;;;;;7.10;5.33;;;10.90;30.90;;;11.87;25.90;98977.56;4829070;29;115227;-89
2022/03/06 15:02:34;;;;;;;5.50;4.37;;;11.10;30.90;;;12.10;26.18;98965.31;4828480;29;125254;-76
2022/03/06 15:08:46;;;;;;;12.00;7.37;;;11.50;30.80;;;12.01;25.54;98966.38;4829225;29;115289;-77
2022/03/06 15:14:55;;;;;;;8.40;5.90;;;9.70;29.60;;;11.73;25.89;98977.59;4828594;29;125112;-77
2022/03/06 15:21:04;;;;;;;6.90;5.00;;;9.60;29.70;;;11.54;25.86;98982.53;4828893;29;116579;-79
2022/03/06 15:27:16;;;;;;;9.53;6.93;;;9.50;29.70;;;11.22;25.88;98995.44;4828474;29;125131;-77
2022/03/06 18:58:09;;;;;;;9.00;6.50;;;6.70;34.70;;;7.15;30.16;99106.38;5703324;23;97857;-81
2022/03/06 19:04:19;;;;;;;8.63;6.53;;;5.50;33.90;;;7.05;30.24;99110.78;4846277;29;125105;-83
2022/03/06 19:14:10;;;;;;;10.03;5.83;;;4.40;33.50;;;7.05;30.43;99116.28;4846841;29;114986;-89
2022/03/06 19:20:20;;;;;;;6.03;4.73;;;6.40;35.20;;;7.05;30.36;99127.28;4846887;29;124742;-77
2022/03/06 19:26:29;;;;;;;7.90;5.33;;;5.30;34.20;;;7.10;30.23;99128.38;4847777;29;114957;-77
2022/03/06 19:40:30;;;;;;;6.70;5.17;;;6.50;35.40;;;7.07;30.12;99133.31;5446834;23;98821;-77
2022/03/06 19:46:41;;;;;;;9.13;5.40;;;6.50;35.40;;;7.05;30.87;99142.94;4837862;29;115957;-77
2022/03/06 19:52:51;;;;;;;6.90;5.37;;;4.10;33.50;;;6.95;30.17;99132.81;4846847;29;125084;-81
2022/03/06 19:59:01;;;;;;;7.37;4.53;;;6.30;35.40;;;6.94;30.48;99133.09;4847022;29;115294;-78
2022/03/06 20:05:11;;;;;;;5.90;4.53;;;6.50;35.60;;;6.98;30.78;99142.41;4846204;29;125053;-77
2022/03/06 20:11:20;;;;;;;6.10;4.70;;;5.20;34.50;;;7.04;30.99;99142.13;4846884;29;115287;-79
2022/03/06 20:21:11;;;;;;;6.03;4.30;;;4.90;34.10;;;6.94;30.57;99146.84;4846149;29;124709;-84
2022/03/06 20:27:20;;;;;;;6.77;5.13;;;6.30;35.20;;;6.79;30.38;99156.75;4828023;29;114407;-81
2022/03/06 20:33:29;;;;;;;9.33;5.30;;;6.30;35.30;;;6.78;30.34;99149.63;4808953;29;125080;-83
2022/03/06 20:36:52;;;;;;;7.63;4.57;;;6.20;35.90;;;6.87;30.83;99158.09;4792930;29;113995;-87
2022/03/06 20:39:37;;;;;;;9.07;5.57;;;4.90;34.20;;;6.87;30.43;99158.09;4808859;29;115145;-87
2022/03/06 20:49:28;;;;;;;5.67;4.37;;;5.90;35.00;;;6.87;29.86;99158.09;4817715;29;116509;-88
2022/03/06 20:55:39;;;;;;;9.23;5.60;;;5.20;34.30;;;6.83;30.36;99157.03;4809088;29;125008;-77
2022/03/06 21:01:48;;;;;;;7.47;4.80;;;5.30;34.50;;;6.87;30.87;99166.34;4815179;29;115328;-81
2022/03/06 21:07:57;;;;;;;6.10;4.20;;;4.00;33.40;;;6.86;30.17;99165.53;4808309;29;124119;-83
2022/03/06 21:14:06;;;;;;;7.30;5.40;;;5.30;34.60;;;6.83;30.72;99170.75;4809174;29;115261;-77
2022/03/06 21:20:15;;;;;;;7.07;5.30;;;6.20;35.20;;;6.75;31.03;99172.16;4808574;29;124488;-77
2022/03/06 21:26:27;;;;;;;7.43;5.20;;;4.30;33.70;;;6.71;30.77;99170.22;4809107;29;115278;-78
2022/03/06 23:12:38;;;;;;;7.17;5.43;;;5.70;36.00;;;6.32;31.29;99181.81;5444554;23;98213;-78
2022/03/06 23:58:57;;;;;;;7.03;5.20;;;5.40;36.10;;;6.30;30.69;99197.72;4845314;29;115374;-84
